Time;durP1;ratioP1;P1;durP2;ratioP2;P2;SDS_P1;SDS_P2;PMS_P1;PMS_P2;Temp;Humidity;BMP_temperature;BMP_pressure;BME280_temperature;BME280_humidity;BME280_pressure;Samples;Min_cycle;Max_cycle;Signal;HPM_P1;HPM_P2
2021/01/25 00:01:00;;;;;;;56.58;26.68;;;;;;;-0.19;86.58;98469.71;1817201;78;25618;-38
2021/01/25 00:03:27;;;;;;;55.35;25.57;;;;;;;-0.23;86.56;98470.03;1817154;78;25754;-46
2021/01/25 00:05:54;;;;;;;49.83;23.85;;;;;;;-0.27;86.61;98466.37;1817209;78;25792;-39
2021/01/25 00:08:21;;;;;;;50.67;23.02;;;;;;;-0.33;86.54;98465.61;1817067;78;25723;-57
2021/01/25 00:10:48;;;;;;;52.48;24.07;;;;;;;-0.37;86.55;98464.59;1817075;78;25735;-61
2021/01/25 00:13:14;;;;;;;50.80;24.87;;;;;;;-0.42;86.45;98465.43;1817209;78;26371;-56
2021/01/25 00:15:41;;;;;;;50.23;24.82;;;;;;;-0.46;86.60;98473.72;1817088;78;25648;-40
2021/01/25 00:18:09;;;;;;;52.10;25.27;;;;;;;-0.50;86.52;98462.59;1817255;78;27611;-63
2021/01/25 00:20:35;;;;;;;52.58;23.67;;;;;;;-0.54;86.53;98465.02;1816980;78;25661;-62
2021/01/25 00:23:03;;;;;;;53.28;25.40;;;;;;;-0.58;86.54;98467.97;1817003;78;25571;-59
2021/01/25 00:25:30;;;;;;;55.65;27.02;;;;;;;-0.61;86.61;98466.67;1816811;78;25630;-54
2021/01/25 00:27:56;;;;;;;59.10;27.98;;;;;;;-0.65;86.65;98470.16;1817156;78;25625;-60
2021/01/25 00:30:24;;;;;;;53.73;27.52;;;;;;;-0.67;86.79;98469.66;1817124;78;26903;-52
2021/01/25 00:32:51;;;;;;;56.37;25.97;;;;;;;-0.72;86.73;98465.17;1816970;78;25681;-40
2021/01/25 00:35:17;;;;;;;53.98;26.90;;;;;;;-0.73;86.88;98472.09;1816772;78;25709;-63
2021/01/25 00:37:44;;;;;;;56.40;27.45;;;;;;;-0.77;86.84;98481.15;1816342;78;25693;-62
2021/01/25 00:40:13;;;;;;;58.25;28.00;;;;;;;-0.78;86.90;98479.58;1816525;78;25901;-42
2021/01/25 00:42:39;;;;;;;58.10;27.55;;;;;;;-0.80;86.92;98477.72;1816712;78;25689;-58
2021/01/25 00:45:08;;;;;;;56.63;26.55;;;;;;;-0.83;86.90;98480.41;1816599;78;25987;-62
2021/01/25 00:47:35;;;;;;;53.87;25.70;;;;;;;-0.85;86.92;98478.57;1816728;78;25678;-60
2021/01/25 00:50:04;;;;;;;59.85;28.42;;;;;;;-0.87;86.91;98475.92;1816488;78;25669;-56
2021/01/25 00:52:31;;;;;;;56.75;25.92;;;;;;;-0.89;86.95;98474.88;1816662;78;26217;-60
2021/01/25 00:54:58;;;;;;;53.42;25.85;;;;;;;-0.91;87.03;98480.21;1816520;78;25732;-58
2021/01/25 00:57:25;;;;;;;53.85;26.68;;;;;;;-0.94;87.07;98485.52;1816577;78;25650;-58
2021/01/25 00:59:53;;;;;;;56.68;26.55;;;;;;;-0.95;87.15;98487.94;1816580;78;25485;-61
2021/01/25 01:02:19;;;;;;;63.98;26.40;;;;;;;-0.97;87.22;98485.56;1817723;78;25609;-57
2021/01/25 01:04:46;;;;;;;53.38;26.73;;;;;;;-0.97;87.25;98485.56;1816017;78;25583;-61
2021/01/25 01:07:13;;;;;;;52.53;26.02;;;;;;;-0.98;87.22;98479.20;1817611;78;25684;-61
2021/01/25 01:09:40;;;;;;;58.58;27.32;;;;;;;-0.98;87.31;98485.30;1817886;78;25536;-60
2021/01/25 01:12:08;;;;;;;58.50;26.85;;;;;;;-0.99;87.29;98487.70;1817830;78;25353;-58
2021/01/25 01:14:35;;;;;;;53.58;25.68;;;;;;;-1.00;87.30;98495.39;1817902;78;25573;-60
2021/01/25 01:17:02;;;;;;;59.80;24.60;;;;;;;-1.01;87.41;98491.14;1818025;78;25412;-58
2021/01/25 01:19:29;;;;;;;59.48;26.15;;;;;;;-0.99;87.47;98493.52;1817801;78;25690;-55
2021/01/25 01:21:56;;;;;;;52.05;25.57;;;;;;;-0.99;87.64;98493.02;1817795;78;25348;-56
2021/01/25 01:24:22;;;;;;;57.17;26.02;;;;;;;-0.96;87.66;98498.28;1823428;78;25354;-57
2021/01/25 01:26:49;;;;;;;56.88;26.80;;;;;;;-0.95;87.76;98498.55;1824085;78;25601;-50
2021/01/25 01:29:16;;;;;;;55.55;26.90;;;;;;;-0.93;87.82;98499.06;1824172;78;25535;-57
2021/01/25 01:31:42;;;;;;;57.27;26.48;;;;;;;-0.90;87.79;98505.16;1824176;78;25680;-59
2021/01/25 01:34:10;;;;;;;51.88;25.50;;;;;;;-0.89;87.81;98504.06;1824351;78;25417;-45
2021/01/25 01:36:37;;;;;;;48.55;24.87;;;;;;;-0.88;87.79;98501.69;1824373;78;25344;-56
2021/01/25 01:39:05;;;;;;;54.85;26.37;;;;;;;-0.86;87.82;98496.88;1824421;78;25549;-57
2021/01/25 01:41:38;;;;;;;51.60;25.77;;;;;;;-0.84;87.86;98511.99;1824409;78;25410;-60
2021/01/25 01:44:10;;;;;;;51.45;25.35;;;;;;;-0.83;87.85;98497.66;1824390;78;25758;-58
2021/01/25 01:46:40;;;;;;;54.15;24.50;;;;;;;-0.81;87.86;98496.06;1824360;78;25583;-58
2021/01/25 01:49:09;;;;;;;57.17;26.77;;;;;;;-0.79;87.89;98498.68;1824391;78;25460;-53
2021/01/25 01:51:37;;;;;;;52.62;24.92;;;;;;;-0.76;87.92;98496.80;1824400;78;25381;-53
2021/01/25 01:54:07;;;;;;;47.15;24.25;;;;;;;-0.72;87.96;98493.59;1824343;78;25712;-49
2021/01/25 01:56:35;;;;;;;56.42;25.45;;;;;;;-0.70;87.95;98492.78;1824477;78;26721;-51
2021/01/25 01:59:03;;;;;;;44.35;19.90;;;;;;;-0.69;87.99;98487.19;1824384;78;25611;-53
2021/01/25 02:01:29;;;;;;;53.70;25.35;;;;;;;-0.65;87.97;98492.73;1824338;78;25602;-54
2021/01/25 02:03:58;;;;;;;47.48;24.43;;;;;;;-0.63;88.03;98493.24;1824462;78;25645;-51
2021/01/25 02:06:29;;;;;;;51.63;24.57;;;;;;;-0.61;88.00;98488.47;1824374;78;25404;-52
2021/01/25 02:08:58;;;;;;;50.50;24.50;;;;;;;-0.59;88.01;98480.46;1824428;78;26721;-53
2021/01/25 02:11:26;;;;;;;49.10;24.32;;;;;;;-0.57;87.98;98484.17;1824429;78;25512;-52
2021/01/25 02:13:52;;;;;;;50.88;24.67;;;;;;;-0.55;87.95;98491.86;1796951;78;25587;-51
2021/01/25 02:16:20;;;;;;;51.25;25.23;;;;;;;-0.52;87.93;98491.30;1824319;78;25451;-49
2021/01/25 02:18:47;;;;;;;46.13;23.18;;;;;;;-0.52;87.88;98496.08;1824504;78;25546;-55
2021/01/25 02:21:16;;;;;;;43.15;22.93;;;;;;;-0.50;87.90;98498.45;1824230;78;26166;-54
2021/01/25 02:24:07;;;;;;;50.25;24.35;;;;;;;-0.50;87.83;98488.61;1824278;78;25325;-54
2021/01/25 02:27:10;;;;;;;46.77;23.55;;;;;;;-0.48;87.79;98500.29;1824322;78;25374;-54
2021/01/25 02:29:37;;;;;;;46.80;22.98;;;;;;;-0.48;87.79;98499.75;1823475;78;25522;-55
2021/01/25 02:32:04;;;;;;;51.75;23.32;;;;;;;-0.46;87.78;98500.28;1824225;78;25577;-53
2021/01/25 02:34:33;;;;;;;48.55;23.38;;;;;;;-0.44;87.77;98505.31;1823969;78;25739;-53
2021/01/25 02:37:00;;;;;;;47.10;23.60;;;;;;;-0.45;87.80;98507.16;1824332;78;25569;-43
2021/01/25 02:39:30;;;;;;;50.30;24.50;;;;;;;-0.44;87.78;98510.62;1824368;78;25576;-54
2021/01/25 02:41:59;;;;;;;46.28;24.27;;;;;;;-0.43;87.81;98506.88;1824422;78;25638;-51
2021/01/25 02:44:28;;;;;;;43.10;21.30;;;;;;;-0.41;87.80;98505.55;1824563;78;25546;-53
2021/01/25 02:46:57;;;;;;;49.67;23.85;;;;;;;-0.39;87.78;98501.28;1824295;78;26419;-43
2021/01/25 02:49:24;;;;;;;49.88;23.20;;;;;;;-0.39;87.76;98504.72;1824339;78;25662;-42
2021/01/25 02:51:51;;;;;;;46.42;23.30;;;;;;;-0.35;87.88;98507.61;1824347;78;25337;-42
2021/01/25 02:54:18;;;;;;;44.90;23.32;;;;;;;-0.34;87.80;98505.73;1824397;78;25550;-48
2021/01/25 02:56:47;;;;;;;45.35;23.00;;;;;;;-0.32;87.79;98506.24;1824259;78;25552;-47
2021/01/25 02:59:15;;;;;;;48.42;23.73;;;;;;;-0.31;87.75;98510.50;1823979;78;27182;-55
2021/01/25 03:01:45;;;;;;;48.58;24.50;;;;;;;-0.29;87.70;98508.34;1824209;78;25567;-55
2021/01/25 03:04:12;;;;;;;48.65;25.50;;;;;;;-0.29;87.71;98499.86;1824062;78;25539;-51
2021/01/25 03:06:42;;;;;;;54.80;24.80;;;;;;;-0.26;87.75;98506.46;1824347;78;25597;-53
2021/01/25 03:09:08;;;;;;;;;;;;;;;-0.24;87.74;98502.98;1827082;78;25630;-51
2021/01/25 03:11:40;;;;;;;46.33;22.73;;;;;;;-0.22;87.62;98502.97;1824424;78;26134;-54
2021/01/25 03:14:10;;;;;;;47.60;22.73;;;;;;;-0.22;87.62;98504.84;1824280;78;25561;-54
2021/01/25 03:16:37;;;;;;;49.25;23.15;;;;;;;-0.21;87.51;98509.06;1824266;78;25570;-51
2021/01/25 03:19:05;;;;;;;45.50;22.80;;;;;;;-0.24;87.44;98506.45;1824294;78;25523;-54
2021/01/25 03:21:34;;;;;;;45.35;23.70;;;;;;;-0.22;87.47;98512.81;1824433;78;25602;-52
2021/01/25 03:24:03;;;;;;;46.18;22.17;;;;;;;-0.21;87.57;98513.84;1821516;78;25746;-49
2021/01/25 03:26:30;;;;;;;51.33;23.92;;;;;;;-0.20;87.58;98516.76;1818000;78;25657;-52
2021/01/25 03:28:57;;;;;;;47.25;24.18;;;;;;;-0.18;87.48;98515.70;1818031;78;25349;-52
2021/01/25 03:31:24;;;;;;;47.62;24.20;;;;;;;-0.20;87.43;98513.32;1817896;78;25567;-53
2021/01/25 03:33:50;;;;;;;50.78;24.12;;;;;;;-0.18;87.49;98513.83;1817928;78;25493;-39
2021/01/25 03:36:17;;;;;;;54.93;26.93;;;;;;;-0.16;87.48;98514.33;1817942;78;26341;-50
2021/01/25 03:38:44;;;;;;;45.00;23.98;;;;;;;-0.15;87.42;98515.11;1817802;78;25408;-54
2021/01/25 03:41:11;;;;;;;46.60;24.30;;;;;;;-0.15;87.36;98515.11;1817947;78;25498;-50
2021/01/25 03:43:37;;;;;;;44.67;22.65;;;;;;;-0.13;87.45;98513.77;1818016;78;25650;-44
2021/01/25 03:46:04;;;;;;;49.27;23.40;;;;;;;-0.09;87.52;98516.66;1817943;78;25514;-54
2021/01/25 03:48:31;;;;;;;48.52;24.60;;;;;;;-0.06;87.54;98513.44;1817980;78;26158;-54
2021/01/25 03:50:57;;;;;;;45.92;23.77;;;;;;;-0.06;87.38;98520.08;1817877;78;25548;-53
2021/01/25 03:53:24;;;;;;;45.67;24.02;;;;;;;-0.06;87.33;98516.09;1817991;78;25496;-49
2021/01/25 03:55:51;;;;;;;50.50;24.80;;;;;;;-0.04;87.36;98524.03;1817928;78;25432;-53
2021/01/25 03:58:18;;;;;;;46.60;23.18;;;;;;;-0.02;87.33;98523.75;1817967;78;25532;-53
2021/01/25 04:00:45;;;;;;;53.50;25.65;;;;;;;0.01;87.37;98528.52;1817555;78;25763;-55
2021/01/25 04:03:11;;;;;;;54.35;26.33;;;;;;;0.01;87.26;98535.16;1817903;78;25378;-55
2021/01/25 04:05:38;;;;;;;50.30;24.40;;;;;;;0.03;87.27;98533.55;1817864;78;25502;-53
2021/01/25 04:08:05;;;;;;;51.70;25.50;;;;;;;0.04;87.21;98535.14;1817903;78;25589;-51
2021/01/25 04:10:32;;;;;;;47.05;25.43;;;;;;;0.02;87.19;98534.09;1817989;78;25601;-49
2021/01/25 04:12:59;;;;;;;48.98;24.60;;;;;;;0.03;87.15;98550.83;1818051;78;26641;-52
2021/01/25 04:15:26;;;;;;;48.50;25.97;;;;;;;0.01;87.13;98548.45;1817701;78;25562;-51
2021/01/25 04:17:52;;;;;;;52.78;26.10;;;;;;;0.02;87.11;98551.89;1817838;78;25510;-55
2021/01/25 04:20:19;;;;;;;50.30;25.10;;;;;;;-0.01;87.01;98555.38;1817781;78;25740;-53
2021/01/25 04:22:46;;;;;;;48.45;24.15;;;;;;;-0.04;86.97;98552.48;1817965;78;25581;-54
2021/01/25 04:25:13;;;;;;;47.40;24.23;;;;;;;-0.05;87.03;98553.55;1824924;78;25833;-54
2021/01/25 04:27:40;;;;;;;49.90;26.07;;;;;;;-0.06;87.06;98555.42;1827100;78;25341;-49
2021/01/25 04:30:12;;;;;;;51.37;26.75;;;;;;;-0.06;87.11;98551.98;1827240;78;25490;-43
2021/01/25 04:32:39;;;;;;;48.83;25.43;;;;;;;-0.09;87.03;98555.98;1827194;78;25565;-53
2021/01/25 04:35:10;;;;;;;51.42;25.70;;;;;;;-0.08;87.18;98555.46;1827219;78;25550;-47
2021/01/25 04:37:47;;;;;;;48.37;24.63;;;;;;;0.01;87.26;98559.08;1888252;76;35077;-54
2021/01/25 04:40:14;;;;;;;58.30;25.55;;;;;;;-0.05;87.30;98561.52;1859126;77;25478;-54
2021/01/25 04:42:41;;;;;;;55.28;26.87;;;;;;;-0.05;87.27;98552.22;1859132;77;25951;-43
2021/01/25 04:45:11;;;;;;;52.98;25.20;;;;;;;-0.04;87.27;98548.50;1858972;77;25606;-44
2021/01/25 04:47:41;;;;;;;45.20;23.67;;;;;;;-0.02;87.35;98547.67;1858861;77;25352;-48
2021/01/25 04:50:09;;;;;;;48.58;24.32;;;;;;;-0.02;87.34;98551.15;1859215;77;25490;-53
2021/01/25 04:52:37;;;;;;;51.83;23.98;;;;;;;0.02;87.41;98551.38;1859186;77;25511;-56
2021/01/25 04:55:06;;;;;;;45.88;24.23;;;;;;;0.03;87.37;98554.27;1859057;77;25689;-55
2021/01/25 04:57:33;;;;;;;48.13;24.98;;;;;;;0.04;87.26;98554.53;1859061;77;25280;-56
2021/01/25 05:00:04;;;;;;;49.33;23.60;;;;;;;0.04;87.28;98553.20;1859047;77;25500;-39
2021/01/25 05:02:29;;;;;;;50.98;24.30;;;;;;;0.05;87.27;98549.48;1859017;77;25592;-56
2021/01/25 05:04:56;;;;;;;50.48;24.23;;;;;;;0.07;87.24;98548.66;1859054;77;25537;-41
2021/01/25 05:07:23;;;;;;;43.68;23.50;;;;;;;0.07;87.18;98551.84;1859055;77;26239;-53
2021/01/25 05:09:50;;;;;;;46.02;24.60;;;;;;;0.07;87.17;98547.84;1858853;77;25368;-47
2021/01/25 05:12:16;;;;;;;48.70;24.55;;;;;;;0.07;87.10;98547.33;1858767;77;25496;-56
2021/01/25 05:14:44;;;;;;;51.08;24.50;;;;;;;0.09;87.11;98549.71;1858935;76;25539;-55
2021/01/25 05:17:13;;;;;;;54.73;24.02;;;;;;;0.07;87.04;98544.67;1858765;77;25549;-56
2021/01/25 05:19:46;;;;;;;47.50;25.80;;;;;;;0.07;87.04;98541.20;1858896;77;26641;-56
2021/01/25 05:22:21;;;;;;;49.65;25.02;;;;;;;0.08;87.12;98546.24;1858902;77;25478;-55
2021/01/25 05:24:55;;;;;;;47.05;23.85;;;;;;;0.08;87.04;98550.23;1859043;77;25643;-53
2021/01/25 05:27:28;;;;;;;51.70;24.85;;;;;;;0.08;87.04;98544.91;1858913;77;25372;-56
2021/01/25 05:30:10;;;;;;;44.33;22.85;;;;;;;0.10;87.10;98556.59;1859153;77;25390;-43
2021/01/25 05:32:51;;;;;;;46.92;23.57;;;;;;;0.13;87.17;98554.70;1859038;77;25748;-54
2021/01/25 05:35:24;;;;;;;44.42;24.05;;;;;;;0.13;87.13;98555.48;1858861;77;25639;-47
2021/01/25 05:38:05;;;;;;;47.58;24.15;;;;;;;0.15;87.18;98558.69;1858910;77;25353;-54
2021/01/25 05:40:36;;;;;;;48.40;24.60;;;;;;;0.15;87.07;98557.36;1858941;77;25422;-52
2021/01/25 05:43:16;;;;;;;49.45;24.18;;;;;;;0.15;87.09;98560.53;1859049;77;25505;-54
2021/01/25 05:45:43;;;;;;;50.35;25.10;;;;;;;0.17;87.08;98561.84;1858977;77;25993;-53
2021/01/25 05:48:14;;;;;;;56.80;26.07;;;;;;;0.17;87.05;98566.35;1858506;77;25389;-55
2021/01/25 05:50:43;;;;;;;45.12;23.73;;;;;;;0.20;87.07;98575.65;1858352;77;25488;-54
2021/01/25 05:53:11;;;;;;;49.40;25.10;;;;;;;0.17;86.92;98569.83;1858062;77;25547;-52
2021/01/25 05:55:40;;;;;;;46.42;24.92;;;;;;;0.18;87.04;98567.95;1858156;77;25384;-48
2021/01/25 05:58:08;;;;;;;45.55;24.32;;;;;;;0.20;87.07;98572.44;1858390;77;25754;-54
2021/01/25 06:00:35;;;;;;;45.92;23.87;;;;;;;0.17;86.91;98565.84;1858337;77;25364;-53
2021/01/25 06:03:05;;;;;;;48.92;24.05;;;;;;;0.16;86.87;98560.80;1858324;77;25478;-52
2021/01/25 06:05:40;;;;;;;48.40;24.23;;;;;;;0.18;87.05;98559.42;1858428;77;25568;-54
2021/01/25 06:08:25;;;;;;;46.35;24.02;;;;;;;0.21;87.06;98560.74;1858525;77;25427;-44
2021/01/25 06:11:19;;;;;;;48.50;24.37;;;;;;;0.22;87.04;98573.49;1858330;77;26187;-40
2021/01/25 06:14:00;;;;;;;44.75;23.77;;;;;;;0.22;86.93;98580.14;1858356;77;25420;-53
2021/01/25 06:16:29;;;;;;;48.38;23.98;;;;;;;0.20;86.87;98570.33;1858349;77;25321;-42
2021/01/25 06:19:08;;;;;;;43.68;23.75;;;;;;;0.19;86.91;98570.88;1858504;77;32266;-55
2021/01/25 06:21:39;;;;;;;51.55;24.80;;;;;;;0.20;86.97;98567.13;1858550;77;25623;-55
2021/01/25 06:24:10;;;;;;;51.58;26.23;;;;;;;0.21;86.97;98575.37;1858409;77;27184;-54
2021/01/25 06:26:37;;;;;;;53.05;25.37;;;;;;;0.21;86.89;98571.92;1858252;77;25514;-53
2021/01/25 06:29:07;;;;;;;45.90;24.32;;;;;;;0.19;86.83;98566.89;1858386;77;25514;-55
2021/01/25 06:31:39;;;;;;;52.25;25.12;;;;;;;0.21;86.87;98570.59;1858119;77;25584;-55
2021/01/25 06:34:09;;;;;;;45.08;24.75;;;;;;;0.21;86.94;98574.04;1858347;77;25355;-53
2021/01/25 06:36:42;;;;;;;48.98;24.55;;;;;;;0.23;86.86;98575.87;1858271;77;26650;-55
2021/01/25 06:39:11;;;;;;;50.03;24.90;;;;;;;0.23;86.91;98571.88;1857992;77;25672;-42
2021/01/25 06:41:42;;;;;;;42.90;24.45;;;;;;;0.23;86.88;98577.20;1858263;77;25578;-45
2021/01/25 06:44:11;;;;;;;46.58;22.48;;;;;;;0.23;86.84;98577.20;1858420;77;25643;-48
2021/01/25 06:46:40;;;;;;;45.40;22.87;;;;;;;0.23;86.80;98581.73;1858400;77;25477;-52
2021/01/25 06:49:09;;;;;;;49.70;25.12;;;;;;;0.22;86.76;98586.24;1858078;77;25771;-40
2021/01/25 06:51:41;;;;;;;53.08;26.57;;;;;;;0.21;86.69;98585.22;1858347;76;25324;-55
2021/01/25 06:54:11;;;;;;;50.58;25.37;;;;;;;0.21;86.74;98588.66;1852613;77;25637;-48
2021/01/25 06:56:59;;;;;;;49.33;26.48;;;;;;;0.21;86.72;98585.22;1858301;77;25496;-53
2021/01/25 06:59:30;;;;;;;46.83;24.45;;;;;;;0.16;86.57;98583.40;1858390;77;25523;-53
2021/01/25 07:01:58;;;;;;;49.27;26.20;;;;;;;0.15;86.62;98587.94;1858301;77;25760;-50
2021/01/25 07:04:26;;;;;;;53.45;28.15;;;;;;;0.14;86.63;98581.56;1858240;77;25331;-56
2021/01/25 07:06:55;;;;;;;53.95;29.80;;;;;;;0.12;86.72;98580.52;1858411;77;25569;-53
2021/01/25 07:09:31;;;;;;;;;;;;;;;0.14;86.81;98579.69;1860998;77;25556;-53
2021/01/25 07:12:00;;;;;;;53.33;27.55;;;;;;;0.15;86.85;98583.13;1858005;77;25675;-42
2021/01/25 07:14:31;;;;;;;52.53;27.87;;;;;;;0.18;86.93;98589.22;1858446;77;26707;-51
2021/01/25 07:16:59;;;;;;;52.38;27.00;;;;;;;0.20;87.00;98591.05;1858149;77;25556;-44
2021/01/25 07:19:27;;;;;;;52.90;26.27;;;;;;;0.23;87.05;98598.47;1858289;77;25866;-40
2021/01/25 07:21:55;;;;;;;55.67;28.57;;;;;;;0.26;87.12;98597.13;1858213;77;25533;-47
2021/01/25 07:24:25;;;;;;;56.88;29.75;;;;;;;0.29;87.15;98601.86;1858384;76;25387;-53
2021/01/25 07:26:54;;;;;;;53.20;28.02;;;;;;;0.30;87.02;98609.56;1857981;77;26264;-50
2021/01/25 07:29:23;;;;;;;51.48;28.70;;;;;;;0.32;86.96;98608.77;1858341;76;25517;-52
2021/01/25 07:31:53;;;;;;;62.13;31.73;;;;;;;0.35;86.98;98604.73;1858226;77;25572;-51
2021/01/25 07:34:20;;;;;;;60.05;27.65;;;;;;;0.37;86.95;98599.92;1858130;77;25404;-48
2021/01/25 07:36:48;;;;;;;53.58;28.25;;;;;;;0.40;87.06;98594.05;1858195;76;25525;-51
2021/01/25 07:39:17;;;;;;;50.20;26.40;;;;;;;0.44;87.14;98590.27;1858088;77;26303;-49
2021/01/25 07:41:46;;;;;;;49.80;28.23;;;;;;;0.46;87.11;98588.12;1858354;77;25370;-50
2021/01/25 07:44:14;;;;;;;55.03;26.70;;;;;;;0.50;87.17;98599.80;1857988;77;25572;-50
2021/01/25 07:46:44;;;;;;;53.80;27.95;;;;;;;0.53;87.21;98601.89;1858018;77;25798;-45
2021/01/25 07:49:12;;;;;;;56.00;27.48;;;;;;;0.58;87.20;98603.16;1858283;77;25513;-48
2021/01/25 07:51:40;;;;;;;57.78;28.92;;;;;;;0.61;87.17;98601.24;1858323;77;26035;-46
2021/01/25 07:54:12;;;;;;;51.85;28.95;;;;;;;0.66;87.22;98600.40;1858145;77;25574;-49
2021/01/25 07:56:39;;;;;;;50.25;27.50;;;;;;;0.68;87.10;98600.38;1857004;77;25617;-50
2021/01/25 07:59:09;;;;;;;55.65;28.35;;;;;;;0.71;87.16;98596.34;1858285;77;25344;-53
2021/01/25 08:01:47;;;;;;;55.85;28.60;;;;;;;0.74;87.15;98603.77;1858318;76;25484;-52
2021/01/25 08:04:19;;;;;;;51.23;27.27;;;;;;;0.77;87.17;98600.54;1858285;77;25695;-55
2021/01/25 08:06:48;;;;;;;53.00;28.23;;;;;;;0.80;87.09;98610.62;1858316;77;25534;-50
2021/01/25 08:09:18;;;;;;;56.65;28.12;;;;;;;0.82;87.03;98604.98;1858148;77;25340;-57
2021/01/25 08:11:43;;;;;;;55.58;29.45;;;;;;;0.85;86.99;98612.41;1858170;77;25503;-52
2021/01/25 08:14:37;;;;;;;52.80;27.75;;;;;;;0.86;87.03;98604.14;1858186;77;25353;-45
2021/01/25 08:17:08;;;;;;;56.23;28.98;;;;;;;0.90;87.03;98611.01;1858203;77;26202;-54
2021/01/25 08:19:56;;;;;;;54.65;28.30;;;;;;;0.91;86.98;98605.41;1853065;77;25376;-48
2021/01/25 08:22:34;;;;;;;54.23;28.15;;;;;;;0.94;87.00;98609.38;1858123;77;25558;-40
2021/01/25 08:25:02;;;;;;;51.55;28.17;;;;;;;0.97;86.96;98606.67;1858098;77;25419;-52
2021/01/25 08:27:36;;;;;;;52.98;26.55;;;;;;;0.99;86.96;98610.64;1857852;77;25530;-47
2021/01/25 08:30:19;;;;;;;49.73;27.55;;;;;;;1.00;86.97;98602.89;1857877;77;25690;-53
2021/01/25 08:32:51;;;;;;;54.18;27.95;;;;;;;1.01;86.94;98601.82;1856901;77;25819;-51
2021/01/25 08:35:52;;;;;;;56.00;28.35;;;;;;;1.06;87.01;98595.64;1858023;77;25605;-52
2021/01/25 08:38:30;;;;;;;53.85;29.48;;;;;;;1.08;87.04;98604.91;1839811;77;25479;-51
2021/01/25 08:41:01;;;;;;;50.83;27.50;;;;;;;1.11;86.97;98600.91;1831871;77;25549;-50
2021/01/25 08:43:33;;;;;;;55.17;28.87;;;;;;;1.14;86.98;98592.86;1829039;78;25688;-55
2021/01/25 08:46:12;;;;;;;54.03;29.35;;;;;;;1.14;86.93;98592.86;1831735;78;25219;-51
2021/01/25 08:48:41;;;;;;;55.67;29.32;;;;;;;1.16;86.87;98596.83;1830497;77;25679;-53
2021/01/25 08:51:16;;;;;;;56.15;29.77;;;;;;;1.17;86.84;98594.95;1831962;78;25533;-51
2021/01/25 08:53:46;;;;;;;55.35;30.88;;;;;;;1.19;86.92;98597.59;1831871;78;25644;-48
2021/01/25 08:56:17;;;;;;;51.65;28.67;;;;;;;1.21;86.81;98595.95;1831791;78;26335;-53
2021/01/25 08:58:44;;;;;;;59.35;30.52;;;;;;;1.23;86.79;98605.25;1831170;78;25660;-55
2021/01/25 09:01:25;;;;;;;52.13;28.92;;;;;;;1.25;86.82;98600.42;1831705;78;25684;-43
2021/01/25 09:03:52;;;;;;;60.85;30.50;;;;;;;1.27;86.87;98610.79;1831620;78;25634;-51
2021/01/25 09:06:19;;;;;;;55.85;29.12;;;;;;;1.30;86.78;98612.88;1831424;78;25588;-47
2021/01/25 09:08:46;;;;;;;58.85;30.30;;;;;;;1.32;86.80;98609.38;1831631;78;27213;-48
2021/01/25 09:11:13;;;;;;;54.25;30.02;;;;;;;1.34;86.81;98609.88;1831654;78;25590;-48
2021/01/25 09:13:40;;;;;;;58.05;29.72;;;;;;;1.35;86.74;98615.47;1831799;78;25628;-52
2021/01/25 09:16:07;;;;;;;58.28;31.07;;;;;;;1.35;86.57;98614.14;1831777;78;25634;-53
2021/01/25 09:18:34;;;;;;;55.23;30.32;;;;;;;1.35;86.58;98612.02;1831822;78;26345;-51
2021/01/25 09:21:00;;;;;;;50.92;27.20;;;;;;;1.39;86.47;98613.02;1831767;78;26388;-47
2021/01/25 09:23:27;;;;;;;52.62;27.82;;;;;;;1.39;86.56;98616.47;1831735;78;25640;-47
2021/01/25 09:25:54;;;;;;;52.45;26.35;;;;;;;1.42;86.50;98617.78;1831857;78;25617;-53
2021/01/25 09:28:21;;;;;;;55.00;28.60;;;;;;;1.42;86.37;98619.89;1831904;78;25577;-53
2021/01/25 09:30:48;;;;;;;55.25;28.38;;;;;;;1.44;86.38;98619.61;1832016;78;25586;-51
2021/01/25 09:33:14;;;;;;;55.75;28.17;;;;;;;1.46;86.36;98625.43;1831924;78;25765;-51
2021/01/25 09:35:41;;;;;;;52.67;27.75;;;;;;;1.49;86.36;98626.97;1831759;78;25763;-46
2021/01/25 09:38:08;;;;;;;55.20;27.13;;;;;;;1.50;86.27;98622.45;1826608;77;25846;-52
2021/01/25 09:40:35;;;;;;;49.05;26.25;;;;;;;1.52;86.24;98620.84;1820300;78;25700;-53
2021/01/25 09:43:02;;;;;;;54.08;26.57;;;;;;;1.54;86.15;98621.33;1820484;78;25531;-53
2021/01/25 09:45:29;;;;;;;49.03;25.40;;;;;;;1.54;86.05;98615.45;1820241;78;26160;-43
2021/01/25 09:47:58;;;;;;;48.28;24.95;;;;;;;1.55;85.99;98617.05;1820309;78;25713;-55
2021/01/25 09:50:24;;;;;;;53.25;27.93;;;;;;;1.57;86.03;98616.22;1820400;78;25636;-51
2021/01/25 09:52:51;;;;;;;55.05;27.35;;;;;;;1.59;85.96;98618.04;1820118;78;25593;-50
2021/01/25 09:55:20;;;;;;;61.25;29.23;;;;;;;1.59;85.87;98608.72;1820232;78;25566;-54
2021/01/25 09:57:47;;;;;;;56.03;28.10;;;;;;;1.60;85.75;98616.97;1820560;78;25676;-49
2021/01/25 10:00:16;;;;;;;54.50;27.10;;;;;;;1.60;85.73;98622.30;1820195;78;25672;-56
2021/01/25 10:02:42;;;;;;;53.48;27.60;;;;;;;1.62;85.77;98616.13;1820419;78;25736;-56
2021/01/25 10:05:11;;;;;;;48.30;25.32;;;;;;;1.63;85.72;98614.25;1820298;78;25592;-45
2021/01/25 10:07:38;;;;;;;47.90;24.72;;;;;;;1.65;85.70;98612.08;1820390;78;25687;-52
2021/01/25 10:10:10;;;;;;;47.05;24.90;;;;;;;1.65;85.67;98621.41;1820440;78;26139;-55
2021/01/25 10:12:38;;;;;;;50.98;25.88;;;;;;;1.64;85.47;98617.18;1820259;78;25678;-53
2021/01/25 10:15:12;;;;;;;51.05;24.70;;;;;;;1.64;85.40;98609.97;1820295;78;25666;-55
2021/01/25 10:17:39;;;;;;;50.17;24.92;;;;;;;1.63;85.28;98608.38;1820244;78;25624;-55
2021/01/25 10:20:08;;;;;;;53.25;27.27;;;;;;;1.63;85.22;98592.93;1820294;78;25586;-59
2021/01/25 10:22:34;;;;;;;58.67;29.77;;;;;;;1.62;85.27;98592.14;1819147;78;25747;-53
2021/01/25 10:25:03;;;;;;;51.15;26.40;;;;;;;1.63;85.32;98595.59;1818750;78;25852;-49
2021/01/25 10:27:30;;;;;;;48.38;25.97;;;;;;;1.63;85.23;98597.70;1819532;78;25632;-51
2021/01/25 10:29:57;;;;;;;51.05;26.87;;;;;;;1.63;85.29;98600.92;1820363;78;25700;-57
2021/01/25 10:32:25;;;;;;;42.78;23.90;;;;;;;1.63;85.22;98604.38;1819953;78;25681;-56
2021/01/25 10:34:52;;;;;;;41.10;23.60;;;;;;;1.63;85.12;98599.05;1820257;78;26738;-56
2021/01/25 10:37:19;;;;;;;47.40;24.05;;;;;;;1.62;85.18;98596.14;1820221;78;25758;-53
2021/01/25 10:39:47;;;;;;;39.53;21.20;;;;;;;1.63;85.09;98590.27;1856490;76;26252;-58
2021/01/25 10:42:17;;;;;;;44.42;22.70;;;;;;;1.62;85.01;98590.03;1857068;77;25748;-42
2021/01/25 10:44:44;;;;;;;39.08;20.55;;;;;;;1.62;85.08;98599.36;1857102;77;25601;-55
2021/01/25 10:47:18;;;;;;;41.77;21.80;;;;;;;1.61;84.99;98587.11;1857096;77;27073;-58
2021/01/25 10:49:42;;;;;;;39.63;21.15;;;;;;;1.60;84.91;98586.84;1856125;77;25652;-57
2021/01/25 10:52:10;;;;;;;41.58;21.07;;;;;;;1.60;85.05;98587.66;1857234;77;25677;-52
2021/01/25 10:54:37;;;;;;;42.33;21.93;;;;;;;1.60;84.91;98586.84;1856901;77;25719;-54
2021/01/25 10:57:07;;;;;;;38.40;21.57;;;;;;;1.59;84.87;98591.39;1857160;77;25790;-58
2021/01/25 10:59:35;;;;;;;36.48;20.72;;;;;;;1.56;84.77;98587.97;1857195;77;26644;-44
2021/01/25 11:02:05;;;;;;;38.65;20.57;;;;;;;1.58;84.90;98582.35;1856999;77;25679;-52
2021/01/25 11:04:32;;;;;;;39.98;20.52;;;;;;;1.58;84.93;98585.02;1856991;77;25855;-50
2021/01/25 11:07:00;;;;;;;38.53;20.45;;;;;;;1.59;84.99;98582.61;1856931;77;25593;-57
2021/01/25 11:09:26;;;;;;;39.15;20.45;;;;;;;1.58;84.94;98585.80;1857110;77;25712;-56
2021/01/25 11:11:53;;;;;;;36.73;20.92;;;;;;;1.59;84.86;98578.61;1856968;77;26236;-56
2021/01/25 11:14:20;;;;;;;43.28;21.93;;;;;;;1.59;84.88;98580.73;1856863;77;25692;-57
2021/01/25 11:16:47;;;;;;;41.55;21.17;;;;;;;1.61;84.95;98581.22;1856966;77;25613;-52
2021/01/25 11:19:15;;;;;;;42.58;21.70;;;;;;;1.61;84.81;98573.23;1856926;77;25592;-53
2021/01/25 11:21:43;;;;;;;36.23;20.62;;;;;;;1.62;84.77;98573.49;1857136;77;25628;-57
2021/01/25 11:24:11;;;;;;;40.55;20.88;;;;;;;1.62;84.81;98566.83;1856972;77;25709;-55
2021/01/25 11:26:40;;;;;;;36.80;20.00;;;;;;;1.63;84.80;98570.27;1856947;77;25780;-55
2021/01/25 11:29:10;;;;;;;39.20;20.57;;;;;;;1.62;84.67;98564.16;1856729;77;25715;-54
2021/01/25 11:31:37;;;;;;;;;;;;;;;1.63;84.71;98563.61;1859774;76;25675;-53